Time;durP1;ratioP1;P1;durP2;ratioP2;P2;SDS_P1;SDS_P2;PMS_P1;PMS_P2;Temp;Humidity;BMP_temperature;BMP_pressure;BME280_temperature;BME280_humidity;BME280_pressure;Samples;Min_cycle;Max_cycle;Signal;HPM_P1;HPM_P2
2023/01/04 00:01:41;;;;;;;4.68;2.15;;;9.30;99.90;;;;;;10472110;28;20028;-63
2023/01/04 00:06:41;;;;;;;3.63;1.70;;;9.30;99.90;;;;;;10461777;28;20090;-64
2023/01/04 00:11:42;;;;;;;3.83;1.90;;;9.30;99.90;;;;;;10471678;28;20055;-65
2023/01/04 00:16:43;;;;;;;4.97;1.77;;;9.30;99.90;;;;;;10467890;28;20032;-64
2023/01/04 00:21:43;;;;;;;4.78;1.63;;;9.30;99.90;;;;;;10472373;28;20397;-62
2023/01/04 00:26:44;;;;;;;5.47;1.85;;;9.30;99.90;;;;;;10470904;28;20071;-62
2023/01/04 00:31:44;;;;;;;7.38;1.83;;;9.30;99.90;;;;;;10471749;28;20016;-65
2023/01/04 00:36:45;;;;;;;4.32;1.80;;;9.40;99.90;;;;;;10487006;28;20028;-65
2023/01/04 00:41:47;;;;;;;4.68;1.85;;;9.30;99.90;;;;;;10470859;28;20044;-65
2023/01/04 00:46:48;;;;;;;4.93;1.90;;;9.40;99.90;;;;;;10467393;28;20027;-62
2023/01/04 00:51:48;;;;;;;2.58;1.50;;;9.40;99.90;;;;;;10486838;28;20493;-64
2023/01/04 00:56:49;;;;;;;4.13;1.40;;;9.30;99.90;;;;;;10467436;28;20029;-62
2023/01/04 01:01:50;;;;;;;11.43;2.03;;;9.40;99.90;;;;;;10482547;28;20099;-65
2023/01/04 01:06:52;;;;;;;6.15;1.40;;;9.40;99.90;;;;;;10482307;28;20528;-64
2023/01/04 01:11:53;;;;;;;2.92;1.85;;;9.40;99.90;;;;;;10477472;28;20017;-65
2023/01/04 01:16:53;;;;;;;6.35;1.77;;;9.40;99.90;;;;;;10481488;28;20070;-65
2023/01/04 01:21:56;;;;;;;4.97;2.10;;;9.40;99.90;;;;;;10473704;28;20108;-64
2023/01/04 01:26:56;;;;;;;4.85;1.70;;;9.40;99.90;;;;;;10477204;28;20053;-65
2023/01/04 01:31:57;;;;;;;2.80;1.77;;;9.40;99.90;;;;;;10470031;28;20453;-66
2023/01/04 01:36:57;;;;;;;4.40;1.80;;;9.40;99.90;;;;;;10482666;28;20085;-66
2023/01/04 01:41:58;;;;;;;3.30;1.48;;;9.40;99.90;;;;;;10471257;28;20024;-63
2023/01/04 01:46:59;;;;;;;2.55;1.70;;;9.40;99.90;;;;;;10474322;28;20021;-65
2023/01/04 01:52:03;;;;;;;3.42;1.50;;;9.40;99.90;;;;;;10471859;28;20065;-66
2023/01/04 01:57:06;;;;;;;3.50;1.42;;;9.30;99.90;;;;;;10473375;28;20473;-65
2023/01/04 02:02:07;;;;;;;2.10;1.45;;;9.40;99.90;;;;;;10477558;28;20021;-65
2023/01/04 02:07:10;;;;;;;2.85;1.70;;;9.40;99.90;;;;;;10456843;28;20366;-65
2023/01/04 02:12:12;;;;;;;2.33;1.35;;;9.40;99.90;;;;;;10483973;28;20029;-66
2023/01/04 02:17:32;;;;;;;2.50;1.48;;;9.40;99.90;;;;;;10479351;28;20366;-67
2023/01/04 02:22:58;;;;;;;1.80;1.30;;;9.40;99.90;;;;;;10472335;28;20670;-66
2023/01/04 02:28:14;;;;;;;2.25;1.23;;;9.40;99.90;;;;;;10466401;28;20025;-66
2023/01/04 02:33:43;;;;;;;2.45;1.20;;;9.40;99.90;;;;;;10481336;28;20024;-66
2023/01/04 02:38:47;;;;;;;2.25;1.33;;;9.40;99.90;;;;;;10471310;28;20062;-66
2023/01/04 02:54:56;;;;;;;1.17;0.98;;;9.40;99.90;;;;;;10467167;28;20033;-63
2023/01/04 03:00:34;;;;;;;3.42;1.20;;;9.50;99.90;;;;;;10466915;28;20036;-63
2023/01/04 03:16:35;;;;;;;3.75;1.13;;;9.50;99.90;;;;;;10472425;28;20040;-65
2023/01/04 03:21:41;;;;;;;2.30;1.00;;;9.50;99.90;;;;;;10480803;28;20025;-65
2023/01/04 03:37:44;;;;;;;0.90;0.80;;;9.60;99.90;;;;;;10470954;28;20178;-65
2023/01/04 03:48:29;;;;;;;1.77;1.00;;;9.60;99.90;;;;;;10469571;28;20029;-62
2023/01/04 03:53:34;;;;;;;1.92;0.95;;;9.60;99.90;;;;;;10459876;28;20048;-65
2023/01/04 03:58:36;;;;;;;1.20;0.90;;;9.60;99.90;;;;;;10458208;28;20042;-63
2023/01/04 04:08:55;;;;;;;;;;;9.60;99.90;;;;;;10475488;28;20283;-65
2023/01/04 04:13:57;;;;;;;1.65;0.75;;;9.60;99.90;;;;;;10478649;28;20342;-65
2023/01/04 04:18:58;;;;;;;1.30;0.80;;;9.60;99.90;;;;;;10470976;28;20029;-65
2023/01/04 04:23:58;;;;;;;1.10;0.88;;;9.60;99.90;;;;;;10468603;28;20493;-62
2023/01/04 04:28:59;;;;;;;1.13;0.80;;;9.70;99.90;;;;;;10465433;28;20013;-65
2023/01/04 04:34:00;;;;;;;2.08;1.02;;;9.60;99.90;;;;;;10452458;28;20036;-65
2023/01/04 04:39:00;;;;;;;1.50;1.00;;;9.70;99.90;;;;;;10460051;28;20078;-65
2023/01/04 04:44:01;;;;;;;1.33;1.00;;;9.70;99.90;;;;;;10465253;28;20028;-62
2023/01/04 04:49:02;;;;;;;2.03;1.00;;;10.10;99.90;;;;;;10473341;28;20041;-62
2023/01/04 04:54:04;;;;;;;1.25;1.00;;;9.70;99.90;;;;;;10461125;28;20059;-63
2023/01/04 04:59:05;;;;;;;1.58;1.10;;;9.70;99.90;;;;;;10464462;28;20025;-63
2023/01/04 05:04:06;;;;;;;1.50;1.17;;;9.80;99.90;;;;;;10477732;28;20363;-63
2023/01/04 05:09:06;;;;;;;1.20;1.10;;;9.80;99.90;;;;;;10478269;28;20031;-66
2023/01/04 05:14:08;;;;;;;1.52;1.20;;;9.80;99.90;;;;;;10468650;28;20218;-63
2023/01/04 05:19:09;;;;;;;1.88;1.20;;;9.80;99.90;;;;;;10446189;28;20082;-65
2023/01/04 05:24:11;;;;;;;1.45;1.10;;;9.80;99.90;;;;;;10480374;28;20080;-65
2023/01/04 05:30:49;;;;;;;1.65;1.33;;;9.80;99.90;;;;;;10475434;28;20013;-65
2023/01/04 05:34:32;;;;;;;1.38;1.13;;;9.90;99.90;;;;;;10483750;28;20044;-62
2023/01/04 05:39:32;;;;;;;2.05;1.42;;;9.90;99.90;;;;;;10473053;28;20517;-66
2023/01/04 05:44:33;;;;;;;1.48;1.38;;;9.90;99.90;;;;;;10476539;28;20419;-66
2023/01/04 05:49:33;;;;;;;2.42;1.40;;;9.90;99.90;;;;;;10483625;28;20044;-67
2023/01/04 05:54:34;;;;;;;1.98;1.70;;;10.00;99.90;;;;;;10472385;28;20037;-66
2023/01/04 05:59:35;;;;;;;2.00;1.65;;;10.00;99.90;;;;;;10467250;28;20028;-67
2023/01/04 06:04:35;;;;;;;1.67;1.40;;;10.00;99.90;;;;;;10470901;28;20122;-66
2023/01/04 06:09:36;;;;;;;1.58;1.35;;;10.00;99.90;;;;;;10461017;28;20159;-67
2023/01/04 06:14:37;;;;;;;2.10;1.48;;;10.00;99.90;;;;;;10466082;28;20048;-66
2023/01/04 06:19:37;;;;;;;1.60;1.30;;;10.00;99.90;;;;;;10477919;28;20788;-63
2023/01/04 06:24:38;;;;;;;1.67;1.40;;;10.00;99.90;;;;;;10481063;28;20025;-65
2023/01/04 06:29:39;;;;;;;1.60;1.50;;;10.00;99.90;;;;;;10477751;28;20021;-65
2023/01/04 06:34:39;;;;;;;1.50;1.38;;;10.10;99.90;;;;;;10483583;28;20028;-65
2023/01/04 06:39:40;;;;;;;2.03;1.30;;;10.20;99.90;;;;;;10476752;28;20104;-64
2023/01/04 06:44:40;;;;;;;1.60;1.38;;;10.10;99.90;;;;;;10471618;28;20539;-67
2023/01/04 06:49:41;;;;;;;2.22;1.33;;;10.10;99.90;;;;;;10479754;28;20016;-67
2023/01/04 06:54:42;;;;;;;2.70;1.50;;;10.10;99.90;;;;;;10472384;28;20066;-65
2023/01/04 06:59:42;;;;;;;2.60;1.30;;;10.10;99.90;;;;;;10469850;28;20036;-67
2023/01/04 07:04:43;;;;;;;1.55;1.15;;;10.20;99.90;;;;;;10471363;28;20036;-63
2023/01/04 07:09:43;;;;;;;1.55;1.27;;;10.20;99.90;;;;;;10477974;28;20388;-66
2023/01/04 07:14:44;;;;;;;1.67;1.20;;;10.10;99.90;;;;;;10465796;28;20036;-64
2023/01/04 07:19:44;;;;;;;1.30;1.08;;;10.20;99.90;;;;;;10477696;28;20035;-67
2023/01/04 07:24:45;;;;;;;1.88;1.10;;;10.20;99.90;;;;;;10477218;28;20565;-68
2023/01/04 07:29:46;;;;;;;1.58;1.02;;;10.40;99.90;;;;;;10472879;28;20141;-67
2023/01/04 07:34:46;;;;;;;1.98;1.00;;;10.20;99.90;;;;;;10474614;28;20028;-67
2023/01/04 07:39:48;;;;;;;2.55;1.25;;;10.20;99.90;;;;;;10475550;28;20108;-66
2023/01/04 07:44:48;;;;;;;1.08;0.98;;;10.20;99.90;;;;;;10472611;28;20032;-68
2023/01/04 07:49:49;;;;;;;1.23;1.02;;;10.20;99.90;;;;;;10474637;28;20017;-67
2023/01/04 07:54:50;;;;;;;1.35;1.00;;;10.40;99.90;;;;;;10468983;28;20032;-63
2023/01/04 07:59:50;;;;;;;1.52;1.20;;;10.20;99.90;;;;;;10473868;28;20044;-67
2023/01/04 08:04:51;;;;;;;1.38;1.10;;;10.30;99.90;;;;;;10469813;28;20029;-66
2023/01/04 08:09:51;;;;;;;2.28;0.85;;;10.30;99.90;;;;;;10460692;28;20043;-66
2023/01/04 08:14:52;;;;;;;2.20;1.05;;;10.30;99.90;;;;;;10451081;28;20037;-64
2023/01/04 08:19:52;;;;;;;1.95;1.10;;;10.30;99.90;;;;;;10459077;28;20013;-63
2023/01/04 08:24:53;;;;;;;1.23;1.10;;;10.30;99.90;;;;;;10463482;28;20477;-67
2023/01/04 08:29:54;;;;;;;1.88;1.25;;;10.30;99.90;;;;;;10469321;28;20713;-63
2023/01/04 08:34:54;;;;;;;1.85;1.20;;;10.30;99.90;;;;;;10469074;28;20037;-66
2023/01/04 08:39:55;;;;;;;1.33;1.23;;;10.30;99.90;;;;;;10467172;28;20123;-64
2023/01/04 08:44:57;;;;;;;2.38;1.23;;;10.30;99.90;;;;;;10468659;28;20024;-64
2023/01/04 08:49:58;;;;;;;1.77;1.20;;;10.40;99.90;;;;;;10466242;28;20014;-63
2023/01/04 08:54:58;;;;;;;1.85;1.20;;;10.40;99.90;;;;;;10471834;28;20040;-64
2023/01/04 08:59:59;;;;;;;1.75;1.10;;;10.40;99.90;;;;;;10479554;28;20521;-66
2023/01/04 09:05:02;;;;;;;1.52;1.13;;;10.40;99.90;;;;;;10472116;28;20028;-63
2023/01/04 09:10:03;;;;;;;1.83;1.13;;;10.40;99.90;;;;;;10471503;28;20028;-64
2023/01/04 09:15:04;;;;;;;1.38;1.20;;;10.40;99.90;;;;;;10480649;28;20029;-64
2023/01/04 09:20:05;;;;;;;1.20;1.05;;;10.50;99.90;;;;;;10484072;28;20469;-66
2023/01/04 09:25:06;;;;;;;1.20;0.93;;;10.50;99.90;;;;;;10481707;28;20016;-65
2023/01/04 09:30:07;;;;;;;1.20;1.00;;;10.50;99.90;;;;;;10478634;28;20020;-64
2023/01/04 09:35:08;;;;;;;2.47;1.30;;;10.50;99.90;;;;;;10475868;28;20028;-66
2023/01/04 09:40:19;;;;;;;2.78;1.00;;;10.50;99.90;;;;;;10477092;28;20032;-62
2023/01/04 09:45:24;;;;;;;1.35;0.95;;;10.60;99.90;;;;;;10466151;28;20020;-65
2023/01/04 09:50:30;;;;;;;0.73;0.73;;;10.50;99.90;;;;;;10462291;28;20378;-65
2023/01/04 09:55:41;;;;;;;1.13;0.88;;;10.50;99.90;;;;;;10477340;28;20031;-67
2023/01/04 10:00:50;;;;;;;2.10;1.10;;;10.50;99.90;;;;;;10478058;28;20635;-67
2023/01/04 10:05:54;;;;;;;1.50;0.88;;;10.50;99.90;;;;;;10479359;28;20025;-63
2023/01/04 10:11:26;;;;;;;1.85;1.02;;;10.50;99.90;;;;;;10477232;28;20108;-63
2023/01/04 10:16:43;;;;;;;1.55;0.80;;;10.50;99.90;;;;;;10471521;28;20485;-63
2023/01/04 10:21:50;;;;;;;1.15;0.80;;;10.50;99.90;;;;;;10473178;28;20095;-67
2023/01/04 10:26:58;;;;;;;1.67;0.90;;;10.60;99.90;;;;;;10467156;28;20025;-66
2023/01/04 10:32:39;;;;;;;0.80;0.80;;;10.60;99.90;;;;;;10471752;28;20115;-67
2023/01/04 10:37:41;;;;;;;1.77;0.90;;;10.60;99.90;;;;;;10477313;28;20078;-64
2023/01/04 10:42:51;;;;;;;0.77;0.77;;;10.60;99.90;;;;;;10472398;28;20019;-66
2023/01/04 10:48:06;;;;;;;1.85;0.73;;;10.60;99.90;;;;;;10469498;28;20284;-66
2023/01/04 10:53:15;;;;;;;1.45;0.82;;;10.70;99.90;;;;;;10479112;28;20036;-67
2023/01/04 10:58:19;;;;;;;3.67;0.90;;;10.70;99.90;;;;;;10473237;28;20043;-67
2023/01/04 11:03:46;;;;;;;0.80;0.70;;;10.70;99.90;;;;;;10459254;28;20025;-66
2023/01/04 11:08:55;;;;;;;1.05;0.80;;;10.70;99.90;;;;;;10472634;28;20462;-65
2023/01/04 11:13:56;;;;;;;0.98;0.70;;;10.70;99.90;;;;;;10450737;28;20119;-64
2023/01/04 11:18:57;;;;;;;0.95;0.77;;;10.80;99.90;;;;;;10470385;28;20029;-65
2023/01/04 11:24:00;;;;;;;1.85;0.90;;;10.80;99.90;;;;;;10475543;28;20174;-67
2023/01/04 11:29:26;;;;;;;1.52;0.80;;;10.80;99.90;;;;;;10477659;28;20732;-67
2023/01/04 11:34:48;;;;;;;2.35;1.00;;;10.80;99.90;;;;;;10469714;28;20043;-67
2023/01/04 11:39:49;;;;;;;2.63;1.08;;;10.80;99.90;;;;;;10476778;28;20432;-67
2023/01/04 11:44:59;;;;;;;2.03;0.95;;;10.80;99.90;;;;;;10474351;28;20064;-67
2023/01/04 11:49:59;;;;;;;1.92;0.93;;;10.80;99.90;;;;;;10449536;28;20844;-67
2023/01/04 11:55:21;;;;;;;2.35;1.00;;;10.90;99.90;;;;;;10459603;28;20024;-66
2023/01/04 12:00:22;;;;;;;2.55;0.85;;;10.90;99.90;;;;;;10458256;28;20401;-66
2023/01/04 12:05:22;;;;;;;1.92;0.75;;;10.90;99.90;;;;;;10476548;28;20071;-66
2023/01/04 12:10:25;;;;;;;2.17;0.95;;;10.90;99.90;;;;;;10459728;28;20091;-67
2023/01/04 12:15:37;;;;;;;2.35;0.90;;;10.90;99.90;;;;;;10471705;28;20423;-66
2023/01/04 12:20:38;;;;;;;2.45;1.02;;;10.90;99.90;;;;;;10477622;28;20537;-63
2023/01/04 12:25:45;;;;;;;2.55;1.17;;;11.00;99.90;;;;;;10480089;28;20013;-63
2023/01/04 12:30:46;;;;;;;3.30;0.88;;;11.00;99.90;;;;;;10468954;28;20070;-62
2023/01/04 12:36:13;;;;;;;2.00;1.00;;;11.00;99.90;;;;;;10468760;28;20097;-64
2023/01/04 12:41:14;;;;;;;3.38;1.00;;;11.00;99.90;;;;;;10455925;28;20112;-62
2023/01/04 12:52:02;;;;;;;1.27;0.95;;;11.10;99.90;;;;;;10467203;28;20035;-65
2023/01/04 12:57:15;;;;;;;2.55;1.00;;;11.20;99.90;;;;;;10469865;28;20128;-66
2023/01/04 13:02:20;;;;;;;4.93;0.80;;;11.10;99.90;;;;;;10464831;28;20021;-66
2023/01/04 13:07:52;;;;;;;2.08;1.00;;;12.20;99.90;;;;;;10471604;28;20023;-63
2023/01/04 13:13:22;;;;;;;2.88;1.27;;;11.10;99.90;;;;;;10474204;28;20409;-63
2023/01/04 13:19:02;;;;;;;3.45;1.00;;;11.10;99.90;;;;;;10471105;28;20072;-63
2023/01/04 13:24:15;;;;;;;2.85;1.25;;;11.20;99.90;;;;;;10470650;28;20043;-62
2023/01/04 13:29:30;;;;;;;5.47;1.42;;;11.10;99.90;;;;;;10477119;28;20362;-63
2023/01/04 13:34:32;;;;;;;4.25;0.80;;;11.10;99.90;;;;;;10475636;28;20028;-62
2023/01/04 13:39:38;;;;;;;3.58;0.90;;;11.20;99.90;;;;;;10472212;28;20633;-66
2023/01/04 13:44:57;;;;;;;3.55;0.98;;;11.20;99.90;;;;;;10481048;28;20104;-62
2023/01/04 13:49:58;;;;;;;4.95;1.20;;;11.20;99.90;;;;;;10466636;28;20023;-64
2023/01/04 13:55:26;;;;;;;4.22;1.02;;;11.20;99.90;;;;;;10480070;28;20037;-62
2023/01/04 14:00:33;;;;;;;2.17;1.13;;;11.20;99.90;;;;;;10480429;28;20028;-64
2023/01/04 14:05:34;;;;;;;4.45;1.20;;;11.30;99.90;;;;;;10477110;28;20271;-66
2023/01/04 14:10:36;;;;;;;3.25;1.10;;;11.20;99.90;;;;;;10477607;28;20020;-63
2023/01/04 14:15:36;;;;;;;4.63;1.67;;;11.20;99.90;;;;;;10477262;28;20112;-65
2023/01/04 14:20:37;;;;;;;4.55;1.20;;;11.20;99.90;;;;;;10471328;28;20368;-65
2023/01/04 14:25:47;;;;;;;3.72;1.15;;;11.30;99.90;;;;;;10476526;28;20036;-65
2023/01/04 14:30:57;;;;;;;7.53;1.65;;;11.30;99.90;;;;;;10480575;28;20009;-65
2023/01/04 14:36:17;;;;;;;5.35;1.02;;;11.30;99.90;;;;;;10478856;28;20036;-64
2023/01/04 14:41:20;;;;;;;7.95;1.13;;;11.20;99.90;;;;;;10477665;28;20025;-64
2023/01/04 14:46:22;;;;;;;4.18;0.90;;;11.20;99.90;;;;;;10479838;28;20066;-64
2023/01/04 14:51:37;;;;;;;5.05;0.93;;;11.20;99.90;;;;;;10477962;28;20024;-67
2023/01/04 14:56:38;;;;;;;5.35;1.55;;;11.20;99.90;;;;;;10471601;28;20032;-66
2023/01/04 15:01:39;;;;;;;2.88;1.13;;;11.20;99.90;;;;;;10457845;28;20096;-65
2023/01/04 15:06:48;;;;;;;5.50;1.50;;;11.20;99.90;;;;;;10476003;28;20027;-65
2023/01/04 15:11:49;;;;;;;3.42;1.13;;;11.30;99.90;;;;;;10453987;28;20024;-65
2023/01/04 15:16:50;;;;;;;3.15;1.00;;;11.20;99.90;;;;;;10479640;28;20477;-64
2023/01/04 15:21:50;;;;;;;4.97;1.17;;;11.20;99.90;;;;;;10473499;28;20029;-65
2023/01/04 15:26:51;;;;;;;2.35;1.33;;;11.20;99.90;;;;;;10472039;28;20039;-64
2023/01/04 15:31:52;;;;;;;6.63;1.17;;;11.20;99.90;;;;;;10473583;28;20107;-66
2023/01/04 15:36:52;;;;;;;4.47;1.00;;;11.20;99.90;;;;;;10475443;28;20055;-64
2023/01/04 15:47:12;;;;;;;2.38;1.08;;;11.20;99.90;;;;;;10464351;28;20025;-65
2023/01/04 15:52:13;;;;;;;7.63;1.38;;;11.20;99.90;;;;;;10470396;28;20020;-66
2023/01/04 15:57:13;;;;;;;7.45;1.20;;;11.30;99.90;;;;;;10476440;28;20036;-64
2023/01/04 16:02:14;;;;;;;7.65;1.65;;;11.30;99.90;;;;;;10470473;28;20481;-67
2023/01/04 16:07:15;;;;;;;8.38;1.50;;;11.20;99.90;;;;;;10450534;28;20036;-64
2023/01/04 16:17:35;;;;;;;3.90;1.25;;;11.30;99.90;;;;;;10475874;28;20044;-64
2023/01/04 16:22:36;;;;;;;6.43;1.23;;;11.30;99.90;;;;;;10457493;28;20024;-65
2023/01/04 16:27:38;;;;;;;7.57;2.00;;;11.30;99.90;;;;;;10470468;28;20646;-64
2023/01/04 16:32:42;;;;;;;6.50;1.35;;;11.30;99.90;;;;;;10474565;28;20469;-63
2023/01/04 16:37:43;;;;;;;5.15;1.17;;;11.20;99.90;;;;;;10466393;28;20039;-64
2023/01/04 16:42:49;;;;;;;3.95;1.77;;;11.20;99.90;;;;;;10453553;28;20544;-63
2023/01/04 16:47:52;;;;;;;3.60;1.10;;;11.20;99.90;;;;;;10460649;28;20035;-63
2023/01/04 16:52:53;;;;;;;2.78;1.23;;;11.20;99.90;;;;;;10469566;28;20021;-64
2023/01/04 16:57:53;;;;;;;7.43;1.50;;;11.20;99.90;;;;;;10468738;28;20040;-63
2023/01/04 17:02:54;;;;;;;3.10;1.38;;;11.20;99.90;;;;;;10468678;28;20062;-65
2023/01/04 17:07:54;;;;;;;5.07;1.33;;;11.20;99.90;;;;;;10461714;28;20032;-66
2023/01/04 17:12:55;;;;;;;4.70;1.30;;;11.20;99.90;;;;;;10457479;28;20481;-65
2023/01/04 17:17:56;;;;;;;6.05;1.20;;;11.20;99.90;;;;;;10477540;28;20028;-64
2023/01/04 17:22:57;;;;;;;6.82;1.65;;;11.20;99.90;;;;;;10477788;28;20029;-63
2023/01/04 17:27:57;;;;;;;5.72;1.27;;;11.20;99.90;;;;;;10472053;28;20025;-63
2023/01/04 17:32:58;;;;;;;5.45;1.60;;;11.20;99.90;;;;;;10466054;28;20029;-63
2023/01/04 17:37:58;;;;;;;7.70;1.48;;;11.20;99.90;;;;;;10449529;28;20036;-64
2023/01/04 17:42:59;;;;;;;6.63;1.20;;;12.10;99.90;;;;;;10464611;28;20028;-64
2023/01/04 17:47:59;;;;;;;3.35;1.20;;;11.20;99.90;;;;;;10469000;28;20535;-64
2023/01/04 17:53:01;;;;;;;6.90;1.40;;;11.20;99.90;;;;;;10475578;28;20025;-65
2023/01/04 17:58:01;;;;;;;7.18;1.23;;;11.20;99.90;;;;;;10471561;28;20087;-64
2023/01/04 18:03:02;;;;;;;6.95;1.40;;;11.20;99.90;;;;;;10482911;28;20016;-64
2023/01/04 18:08:02;;;;;;;4.68;1.38;;;11.30;99.90;;;;;;10474013;28;20048;-66
2023/01/04 18:13:03;;;;;;;4.47;1.90;;;11.20;99.90;;;;;;10477233;28;20022;-68
2023/01/04 18:18:04;;;;;;;4.45;1.23;;;11.20;99.90;;;;;;10465981;28;20572;-63
2023/01/04 18:23:04;;;;;;;8.95;1.98;;;11.20;99.90;;;;;;10467839;28;20036;-65
2023/01/04 18:28:05;;;;;;;11.13;1.92;;;11.20;99.90;;;;;;10471632;28;20027;-65
2023/01/04 18:33:05;;;;;;;11.95;1.50;;;11.20;99.90;;;;;;10462465;28;20772;-65
2023/01/04 18:38:07;;;;;;;7.68;1.58;;;11.20;99.90;;;;;;10472858;28;20222;-64
2023/01/04 18:43:07;;;;;;;4.82;1.73;;;11.30;99.90;;;;;;10462860;28;20021;-64
2023/01/04 18:48:08;;;;;;;5.03;1.08;;;11.30;99.90;;;;;;10459150;28;20494;-66
2023/01/04 18:53:08;;;;;;;4.82;1.02;;;11.20;99.90;;;;;;10459898;28;20016;-64
2023/01/04 18:58:09;;;;;;;5.63;1.45;;;11.20;99.90;;;;;;10462956;28;20052;-63
2023/01/04 19:03:09;;;;;;;8.90;1.85;;;11.20;99.90;;;;;;10465298;28;20028;-63
2023/01/04 19:08:10;;;;;;;3.35;1.30;;;11.20;99.90;;;;;;10468824;28;20225;-64
2023/01/04 19:13:11;;;;;;;5.78;1.35;;;11.20;99.90;;;;;;10462143;28;20707;-63
2023/01/04 19:18:11;;;;;;;5.38;2.13;;;11.20;99.90;;;;;;10469329;28;20032;-63
2023/01/04 19:23:12;;;;;;;5.68;1.48;;;11.10;99.90;;;;;;10466321;28;20033;-63
2023/01/04 19:28:13;;;;;;;3.17;1.67;;;11.20;99.90;;;;;;10466953;28;20055;-63
2023/01/04 19:33:15;;;;;;;6.22;1.45;;;11.20;99.90;;;;;;10467278;28;20024;-62
2023/01/04 19:38:15;;;;;;;4.05;1.30;;;11.20;99.90;;;;;;10462860;28;20034;-62
2023/01/04 19:43:16;;;;;;;4.45;2.05;;;11.10;99.90;;;;;;10461931;28;20025;-66
2023/01/04 19:48:16;;;;;;;6.65;1.75;;;11.10;99.90;;;;;;10461962;28;20317;-64
2023/01/04 19:53:17;;;;;;;9.25;1.90;;;11.20;99.90;;;;;;10466875;28;20498;-64
2023/01/04 19:58:17;;;;;;;4.68;1.38;;;11.20;99.90;;;;;;10464590;28;20032;-64
2023/01/04 20:03:18;;;;;;;6.72;1.90;;;11.20;99.90;;;;;;10466256;28;20089;-65
2023/01/04 20:08:19;;;;;;;9.52;2.05;;;11.20;99.90;;;;;;10466162;28;20481;-66
2023/01/04 20:13:19;;;;;;;8.00;1.90;;;11.20;99.90;;;;;;10469735;28;20025;-66
2023/01/04 20:18:22;;;;;;;12.77;3.15;;;11.20;99.90;;;;;;10470495;28;20060;-66
2023/01/04 20:23:23;;;;;;;10.38;2.15;;;11.20;99.90;;;;;;10461201;28;20622;-64
2023/01/04 20:28:24;;;;;;;7.53;1.70;;;11.20;99.90;;;;;;10468917;28;20025;-64
2023/01/04 20:33:25;;;;;;;13.88;2.58;;;11.20;99.90;;;;;;10466136;28;20039;-66
2023/01/04 20:38:25;;;;;;;9.70;1.73;;;11.20;99.90;;;;;;10461659;28;20032;-66
2023/01/04 20:43:32;;;;;;;9.85;2.03;;;11.20;99.90;;;;;;10461725;28;20012;-66
2023/01/04 20:48:33;;;;;;;7.82;1.95;;;11.10;99.90;;;;;;10465755;28;20024;-65
2023/01/04 20:53:35;;;;;;;10.60;2.30;;;11.10;99.90;;;;;;10474848;28;20020;-66
2023/01/04 20:58:35;;;;;;;9.32;1.60;;;11.20;99.90;;;;;;10475785;28;20056;-64
2023/01/04 21:03:37;;;;;;;4.55;1.50;;;11.10;99.90;;;;;;10475508;28;20036;-66
2023/01/04 21:08:39;;;;;;;9.10;1.65;;;11.10;99.90;;;;;;10474304;28;20025;-66
2023/01/04 21:13:40;;;;;;;7.95;1.88;;;11.10;99.90;;;;;;10479212;28;20017;-65
2023/01/04 21:18:42;;;;;;;9.70;2.00;;;11.10;99.90;;;;;;10478595;28;20037;-64
2023/01/04 21:23:43;;;;;;;6.90;1.85;;;11.10;99.90;;;;;;10478461;28;20033;-64
2023/01/04 21:28:45;;;;;;;11.50;1.67;;;11.10;99.90;;;;;;10472623;28;20104;-63
2023/01/04 21:33:46;;;;;;;9.02;2.45;;;11.10;99.90;;;;;;10473284;28;20024;-64
2023/01/04 21:38:50;;;;;;;12.40;2.10;;;11.10;99.90;;;;;;10476166;28;20503;-64
2023/01/04 21:43:53;;;;;;;4.25;1.63;;;11.10;99.90;;;;;;10475054;28;20077;-64
2023/01/04 21:48:58;;;;;;;5.95;2.08;;;11.10;99.90;;;;;;10479711;28;20357;-63
2023/01/04 21:54:00;;;;;;;8.65;2.28;;;11.10;99.90;;;;;;10474732;28;20029;-63
2023/01/04 21:59:00;;;;;;;7.00;1.70;;;11.10;99.90;;;;;;10480432;28;20090;-63
2023/01/04 22:04:02;;;;;;;8.05;1.75;;;11.10;99.90;;;;;;10476977;28;20017;-62
2023/01/04 22:09:03;;;;;;;7.43;1.90;;;11.10;99.90;;;;;;10476129;28;20512;-64
2023/01/04 22:14:04;;;;;;;6.63;1.80;;;11.10;99.90;;;;;;10471862;28;20294;-61
2023/01/04 22:19:04;;;;;;;6.25;1.63;;;11.00;99.90;;;;;;10475972;28;20102;-66
2023/01/04 22:24:06;;;;;;;9.60;2.28;;;11.10;99.90;;;;;;10476858;28;20029;-66
2023/01/04 22:29:07;;;;;;;6.63;1.60;;;11.10;99.90;;;;;;10476540;28;20094;-65
2023/01/04 22:34:08;;;;;;;7.38;2.08;;;11.10;99.90;;;;;;10479484;28;20225;-65
2023/01/04 22:39:09;;;;;;;9.05;2.13;;;11.10;99.90;;;;;;10475714;28;20543;-65
2023/01/04 22:44:09;;;;;;;8.98;1.50;;;11.10;99.90;;;;;;10478773;28;20504;-65
2023/01/04 22:49:10;;;;;;;10.15;1.90;;;11.10;99.90;;;;;;10478232;28;20028;-66
2023/01/04 22:54:11;;;;;;;7.97;1.65;;;11.10;99.90;;;;;;10477225;28;20024;-66
2023/01/04 22:59:13;;;;;;;9.55;1.50;;;11.10;99.90;;;;;;10475766;28;20090;-65
2023/01/04 23:04:15;;;;;;;9.93;2.78;;;11.10;99.90;;;;;;10474130;28;20435;-67
2023/01/04 23:09:17;;;;;;;14.65;1.92;;;11.20;99.90;;;;;;10483755;28;20043;-65
2023/01/04 23:14:18;;;;;;;10.10;2.13;;;11.10;99.90;;;;;;10473367;28;20028;-65
2023/01/04 23:19:18;;;;;;;10.20;1.95;;;11.10;99.90;;;;;;10476562;28;20392;-65
2023/01/04 23:24:19;;;;;;;8.57;1.67;;;11.10;99.90;;;;;;10468596;28;20400;-66
2023/01/04 23:29:20;;;;;;;10.07;1.60;;;11.10;99.90;;;;;;10533158;22;20325;-68
2023/01/04 23:34:22;;;;;;;7.35;1.48;;;11.10;99.90;;;;;;10484359;28;20044;-68
2023/01/04 23:39:22;;;;;;;6.32;1.92;;;11.10;99.90;;;;;;10479027;22;20071;-66
2023/01/04 23:44:25;;;;;;;5.55;1.50;;;11.10;99.90;;;;;;10460176;28;20075;-66
2023/01/04 23:49:28;;;;;;;7.43;1.77;;;11.10;99.90;;;;;;10459793;28;20025;-65
2023/01/04 23:54:29;;;;;;;7.13;1.90;;;11.10;99.90;;;;;;10464623;28;20013;-66
2023/01/04 23:59:30;;;;;;;11.18;1.95;;;11.10;99.90;;;;;;10469078;28;20346;-65
